sensor_id;sensor_type;location;lat;lon;timestamp;P1;durP1;ratioP1;P2;durP2;ratioP2
15567;SDS011;7885;42.596;23.044;2023-08-08T00:02:12;1.37;;;1.17;;
15567;SDS011;7885;42.596;23.044;2023-08-08T00:04:39;1.93;;;1.10;;
15567;SDS011;7885;42.596;23.044;2023-08-08T00:07:06;1.63;;;1.00;;
15567;SDS011;7885;42.596;23.044;2023-08-08T00:09:32;1.80;;;1.20;;
15567;SDS011;7885;42.596;23.044;2023-08-08T00:11:59;0.90;;;0.90;;
15567;SDS011;7885;42.596;23.044;2023-08-08T00:14:27;2.50;;;1.00;;
15567;SDS011;7885;42.596;23.044;2023-08-08T00:16:54;0.93;;;0.90;;
15567;SDS011;7885;42.596;23.044;2023-08-08T00:19:21;1.30;;;1.20;;
15567;SDS011;7885;42.596;23.044;2023-08-08T00:21:48;1.53;;;1.07;;
15567;SDS011;7885;42.596;23.044;2023-08-08T00:24:14;1.30;;;1.20;;
15567;SDS011;7885;42.596;23.044;2023-08-08T00:26:41;1.80;;;1.20;;
15567;SDS011;7885;42.596;23.044;2023-08-08T00:29:08;1.30;;;1.20;;
15567;SDS011;7885;42.596;23.044;2023-08-08T00:31:36;1.20;;;1.10;;
15567;SDS011;7885;42.596;23.044;2023-08-08T00:34:03;1.07;;;0.97;;
15567;SDS011;7885;42.596;23.044;2023-08-08T00:36:30;1.23;;;1.10;;
15567;SDS011;7885;42.596;23.044;2023-08-08T00:45:41;2.33;;;1.20;;
15567;SDS011;7885;42.596;23.044;2023-08-08T00:48:11;1.23;;;1.13;;
15567;SDS011;7885;42.596;23.044;2023-08-08T00:50:37;1.17;;;1.03;;
15567;SDS011;7885;42.596;23.044;2023-08-08T00:53:04;3.00;;;1.30;;
15567;SDS011;7885;42.596;23.044;2023-08-08T00:55:31;2.10;;;1.30;;
15567;SDS011;7885;42.596;23.044;2023-08-08T00:57:58;1.30;;;1.20;;
15567;SDS011;7885;42.596;23.044;2023-08-08T01:00:25;1.00;;;1.00;;
15567;SDS011;7885;42.596;23.044;2023-08-08T01:02:52;1.37;;;1.27;;
15567;SDS011;7885;42.596;23.044;2023-08-08T01:05:20;1.63;;;1.10;;
15567;SDS011;7885;42.596;23.044;2023-08-08T01:07:49;2.40;;;1.20;;
15567;SDS011;7885;42.596;23.044;2023-08-08T01:10:21;1.23;;;1.13;;
15567;SDS011;7885;42.596;23.044;2023-08-08T01:12:52;1.33;;;1.20;;
15567;SDS011;7885;42.596;23.044;2023-08-08T01:15:21;3.70;;;1.20;;
15567;SDS011;7885;42.596;23.044;2023-08-08T01:17:49;1.20;;;1.10;;
15567;SDS011;7885;42.596;23.044;2023-08-08T01:20:17;1.30;;;1.20;;
15567;SDS011;7885;42.596;23.044;2023-08-08T01:22:50;1.10;;;1.00;;
15567;SDS011;7885;42.596;23.044;2023-08-08T01:25:26;1.20;;;1.10;;
15567;SDS011;7885;42.596;23.044;2023-08-08T01:27:52;2.83;;;1.20;;
15567;SDS011;7885;42.596;23.044;2023-08-08T01:30:19;1.67;;;1.57;;
15567;SDS011;7885;42.596;23.044;2023-08-08T01:32:46;1.70;;;1.40;;
15567;SDS011;7885;42.596;23.044;2023-08-08T01:35:12;1.83;;;1.73;;
15567;SDS011;7885;42.596;23.044;2023-08-08T01:37:41;1.70;;;1.50;;
15567;SDS011;7885;42.596;23.044;2023-08-08T01:40:13;1.40;;;1.30;;
15567;SDS011;7885;42.596;23.044;2023-08-08T01:42:45;1.50;;;1.40;;
15567;SDS011;7885;42.596;23.044;2023-08-08T01:45:14;1.83;;;1.53;;
15567;SDS011;7885;42.596;23.044;2023-08-08T01:47:41;2.73;;;1.20;;
15567;SDS011;7885;42.596;23.044;2023-08-08T01:50:09;1.27;;;1.17;;
15567;SDS011;7885;42.596;23.044;2023-08-08T01:52:36;2.87;;;1.20;;
15567;SDS011;7885;42.596;23.044;2023-08-08T01:55:03;1.50;;;1.40;;
15567;SDS011;7885;42.596;23.044;2023-08-08T01:57:30;1.40;;;1.30;;
15567;SDS011;7885;42.596;23.044;2023-08-08T01:59:58;1.23;;;1.13;;
15567;SDS011;7885;42.596;23.044;2023-08-08T02:02:25;2.13;;;1.33;;
15567;SDS011;7885;42.596;23.044;2023-08-08T02:04:52;1.97;;;1.33;;
15567;SDS011;7885;42.596;23.044;2023-08-08T02:07:18;1.50;;;1.40;;
15567;SDS011;7885;42.596;23.044;2023-08-08T02:09:45;1.57;;;1.47;;
15567;SDS011;7885;42.596;23.044;2023-08-08T02:12:12;1.40;;;1.30;;
15567;SDS011;7885;42.596;23.044;2023-08-08T02:14:38;2.20;;;1.47;;
15567;SDS011;7885;42.596;23.044;2023-08-08T02:17:07;2.37;;;1.90;;
15567;SDS011;7885;42.596;23.044;2023-08-08T02:19:33;2.70;;;1.70;;
15567;SDS011;7885;42.596;23.044;2023-08-08T02:22:00;4.33;;;1.40;;
15567;SDS011;7885;42.596;23.044;2023-08-08T02:24:27;3.27;;;1.50;;
15567;SDS011;7885;42.596;23.044;2023-08-08T02:26:54;1.60;;;1.50;;
15567;SDS011;7885;42.596;23.044;2023-08-08T02:29:20;2.60;;;1.80;;
15567;SDS011;7885;42.596;23.044;2023-08-08T02:31:47;1.70;;;1.60;;
15567;SDS011;7885;42.596;23.044;2023-08-08T02:34:15;3.33;;;1.60;;
15567;SDS011;7885;42.596;23.044;2023-08-08T02:36:42;2.17;;;1.70;;
15567;SDS011;7885;42.596;23.044;2023-08-08T02:39:09;2.87;;;1.70;;
15567;SDS011;7885;42.596;23.044;2023-08-08T02:41:36;1.93;;;1.60;;
15567;SDS011;7885;42.596;23.044;2023-08-08T02:47:24;2.73;;;1.70;;
15567;SDS011;7885;42.596;23.044;2023-08-08T02:49:52;2.03;;;1.93;;
15567;SDS011;7885;42.596;23.044;2023-08-08T02:52:19;2.20;;;1.80;;
15567;SDS011;7885;42.596;23.044;2023-08-08T02:54:45;2.40;;;1.90;;
15567;SDS011;7885;42.596;23.044;2023-08-08T02:57:12;3.10;;;2.37;;
15567;SDS011;7885;42.596;23.044;2023-08-08T02:59:39;2.07;;;1.87;;
15567;SDS011;7885;42.596;23.044;2023-08-08T03:02:06;4.10;;;1.90;;
15567;SDS011;7885;42.596;23.044;2023-08-08T03:04:33;1.80;;;1.70;;
15567;SDS011;7885;42.596;23.044;2023-08-08T03:07:01;3.17;;;1.87;;
15567;SDS011;7885;42.596;23.044;2023-08-08T03:09:29;2.57;;;2.10;;
15567;SDS011;7885;42.596;23.044;2023-08-08T03:11:55;2.77;;;2.10;;
15567;SDS011;7885;42.596;23.044;2023-08-08T03:14:22;2.97;;;2.30;;
15567;SDS011;7885;42.596;23.044;2023-08-08T03:16:49;3.43;;;2.30;;
15567;SDS011;7885;42.596;23.044;2023-08-08T03:19:16;3.87;;;2.43;;
15567;SDS011;7885;42.596;23.044;2023-08-08T03:21:42;3.20;;;2.30;;
15567;SDS011;7885;42.596;23.044;2023-08-08T03:24:10;3.50;;;2.07;;
15567;SDS011;7885;42.596;23.044;2023-08-08T03:26:37;2.23;;;2.00;;
15567;SDS011;7885;42.596;23.044;2023-08-08T03:29:04;3.30;;;2.20;;
15567;SDS011;7885;42.596;23.044;2023-08-08T03:31:34;2.10;;;2.00;;
15567;SDS011;7885;42.596;23.044;2023-08-08T03:34:01;3.47;;;2.20;;
15567;SDS011;7885;42.596;23.044;2023-08-08T03:36:29;3.90;;;2.80;;
15567;SDS011;7885;42.596;23.044;2023-08-08T03:38:56;3.43;;;2.03;;
15567;SDS011;7885;42.596;23.044;2023-08-08T03:41:25;3.20;;;2.57;;
15567;SDS011;7885;42.596;23.044;2023-08-08T03:43:51;2.97;;;2.30;;
15567;SDS011;7885;42.596;23.044;2023-08-08T03:46:18;3.00;;;2.00;;
15567;SDS011;7885;42.596;23.044;2023-08-08T03:48:45;2.67;;;2.37;;
15567;SDS011;7885;42.596;23.044;2023-08-08T03:51:12;4.17;;;3.30;;
15567;SDS011;7885;42.596;23.044;2023-08-08T03:53:38;6.20;;;4.57;;
15567;SDS011;7885;42.596;23.044;2023-08-08T03:56:05;3.37;;;2.67;;
15567;SDS011;7885;42.596;23.044;2023-08-08T03:58:34;4.13;;;2.20;;
15567;SDS011;7885;42.596;23.044;2023-08-08T04:01:01;3.30;;;2.40;;
15567;SDS011;7885;42.596;23.044;2023-08-08T04:03:28;2.80;;;2.60;;
15567;SDS011;7885;42.596;23.044;2023-08-08T04:05:55;3.17;;;2.87;;
15567;SDS011;7885;42.596;23.044;2023-08-08T04:08:21;2.60;;;2.40;;
15567;SDS011;7885;42.596;23.044;2023-08-08T04:10:48;3.07;;;2.77;;
15567;SDS011;7885;42.596;23.044;2023-08-08T04:13:15;3.20;;;2.90;;
15567;SDS011;7885;42.596;23.044;2023-08-08T04:15:43;3.83;;;2.90;;
15567;SDS011;7885;42.596;23.044;2023-08-08T04:18:10;3.47;;;3.03;;
15567;SDS011;7885;42.596;23.044;2023-08-08T04:20:37;3.60;;;3.30;;
15567;SDS011;7885;42.596;23.044;2023-08-08T04:23:04;3.50;;;3.20;;
15567;SDS011;7885;42.596;23.044;2023-08-08T04:25:31;3.20;;;2.90;;
15567;SDS011;7885;42.596;23.044;2023-08-08T04:27:57;3.43;;;3.10;;
15567;SDS011;7885;42.596;23.044;2023-08-08T04:30:24;3.40;;;3.10;;
15567;SDS011;7885;42.596;23.044;2023-08-08T04:32:52;3.50;;;3.20;;
15567;SDS011;7885;42.596;23.044;2023-08-08T04:35:19;3.23;;;2.93;;
15567;SDS011;7885;42.596;23.044;2023-08-08T04:37:46;6.70;;;3.40;;
15567;SDS011;7885;42.596;23.044;2023-08-08T04:40:13;5.50;;;4.77;;
15567;SDS011;7885;42.596;23.044;2023-08-08T04:46:02;4.80;;;4.40;;
15567;SDS011;7885;42.596;23.044;2023-08-08T04:48:30;4.10;;;3.80;;
15567;SDS011;7885;42.596;23.044;2023-08-08T04:50:57;3.80;;;3.50;;
15567;SDS011;7885;42.596;23.044;2023-08-08T04:53:24;5.33;;;3.50;;
15567;SDS011;7885;42.596;23.044;2023-08-08T04:55:51;3.30;;;3.00;;
15567;SDS011;7885;42.596;23.044;2023-08-08T04:58:18;4.33;;;3.20;;
15567;SDS011;7885;42.596;23.044;2023-08-08T05:00:45;3.97;;;3.00;;
15567;SDS011;7885;42.596;23.044;2023-08-08T05:03:12;3.83;;;3.53;;
15567;SDS011;7885;42.596;23.044;2023-08-08T05:05:40;3.17;;;2.90;;
15567;SDS011;7885;42.596;23.044;2023-08-08T05:08:07;3.67;;;3.37;;
15567;SDS011;7885;42.596;23.044;2023-08-08T05:10:33;3.23;;;2.97;;
15567;SDS011;7885;42.596;23.044;2023-08-08T05:13:00;2.83;;;2.63;;
15567;SDS011;7885;42.596;23.044;2023-08-08T05:15:27;3.47;;;2.77;;
15567;SDS011;7885;42.596;23.044;2023-08-08T05:17:54;2.73;;;2.50;;
15567;SDS011;7885;42.596;23.044;2023-08-08T05:20:21;2.50;;;2.37;;
15567;SDS011;7885;42.596;23.044;2023-08-08T05:22:49;3.10;;;2.83;;
15567;SDS011;7885;42.596;23.044;2023-08-08T05:25:16;2.63;;;2.40;;
15567;SDS011;7885;42.596;23.044;2023-08-08T05:27:43;2.60;;;2.40;;
15567;SDS011;7885;42.596;23.044;2023-08-08T05:30:10;2.50;;;2.30;;
15567;SDS011;7885;42.596;23.044;2023-08-08T05:32:37;2.90;;;2.70;;
15567;SDS011;7885;42.596;23.044;2023-08-08T05:35:04;2.60;;;2.40;;
15567;SDS011;7885;42.596;23.044;2023-08-08T05:37:32;2.83;;;2.57;;
15567;SDS011;7885;42.596;23.044;2023-08-08T05:40:00;2.70;;;2.50;;
15567;SDS011;7885;42.596;23.044;2023-08-08T05:42:28;2.43;;;2.23;;
15567;SDS011;7885;42.596;23.044;2023-08-08T05:44:57;3.10;;;2.87;;
15567;SDS011;7885;42.596;23.044;2023-08-08T05:47:23;2.90;;;2.70;;
15567;SDS011;7885;42.596;23.044;2023-08-08T05:49:50;2.70;;;2.50;;
15567;SDS011;7885;42.596;23.044;2023-08-08T05:52:17;3.00;;;2.80;;
15567;SDS011;7885;42.596;23.044;2023-08-08T05:54:44;2.70;;;2.50;;
15567;SDS011;7885;42.596;23.044;2023-08-08T05:57:12;2.90;;;2.70;;
15567;SDS011;7885;42.596;23.044;2023-08-08T05:59:39;3.40;;;2.53;;
15567;SDS011;7885;42.596;23.044;2023-08-08T06:02:06;3.00;;;2.80;;
15567;SDS011;7885;42.596;23.044;2023-08-08T06:04:32;2.77;;;2.57;;
15567;SDS011;7885;42.596;23.044;2023-08-08T06:06:59;2.90;;;2.70;;
15567;SDS011;7885;42.596;23.044;2023-08-08T06:09:26;3.30;;;3.07;;
15567;SDS011;7885;42.596;23.044;2023-08-08T06:11:53;3.80;;;2.70;;
15567;SDS011;7885;42.596;23.044;2023-08-08T06:14:21;3.30;;;2.50;;
15567;SDS011;7885;42.596;23.044;2023-08-08T06:16:48;2.70;;;2.50;;
15567;SDS011;7885;42.596;23.044;2023-08-08T06:19:15;2.90;;;2.70;;
15567;SDS011;7885;42.596;23.044;2023-08-08T06:21:41;3.10;;;2.80;;
15567;SDS011;7885;42.596;23.044;2023-08-08T06:24:08;3.07;;;2.80;;
15567;SDS011;7885;42.596;23.044;2023-08-08T06:26:35;2.57;;;2.37;;
15567;SDS011;7885;42.596;23.044;2023-08-08T06:29:02;2.70;;;2.50;;
15567;SDS011;7885;42.596;23.044;2023-08-08T06:31:30;2.40;;;2.20;;
15567;SDS011;7885;42.596;23.044;2023-08-08T06:33:57;3.60;;;2.10;;
15567;SDS011;7885;42.596;23.044;2023-08-08T06:36:24;2.53;;;1.97;;
15567;SDS011;7885;42.596;23.044;2023-08-08T06:38:51;2.33;;;1.80;;
15567;SDS011;7885;42.596;23.044;2023-08-08T06:41:18;1.80;;;1.70;;
15567;SDS011;7885;42.596;23.044;2023-08-08T06:43:44;1.60;;;1.50;;
15567;SDS011;7885;42.596;23.044;2023-08-08T06:46:11;1.60;;;1.50;;
15567;SDS011;7885;42.596;23.044;2023-08-08T06:48:41;1.70;;;1.60;;
15567;SDS011;7885;42.596;23.044;2023-08-08T06:51:08;1.80;;;1.70;;
15567;SDS011;7885;42.596;23.044;2023-08-08T06:53:35;3.77;;;1.83;;
15567;SDS011;7885;42.596;23.044;2023-08-08T06:56:02;1.70;;;1.60;;
15567;SDS011;7885;42.596;23.044;2023-08-08T06:58:29;2.43;;;2.13;;
15567;SDS011;7885;42.596;23.044;2023-08-08T07:00:55;2.10;;;1.90;;
15567;SDS011;7885;42.596;23.044;2023-08-08T07:03:22;1.90;;;1.80;;
15567;SDS011;7885;42.596;23.044;2023-08-08T07:05:50;1.83;;;1.63;;
15567;SDS011;7885;42.596;23.044;2023-08-08T07:08:17;2.10;;;1.70;;
15567;SDS011;7885;42.596;23.044;2023-08-08T07:10:45;2.40;;;1.60;;
15567;SDS011;7885;42.596;23.044;2023-08-08T07:16:34;1.60;;;1.50;;
15567;SDS011;7885;42.596;23.044;2023-08-08T07:19:01;2.17;;;1.60;;
15567;SDS011;7885;42.596;23.044;2023-08-08T07:21:29;1.57;;;1.47;;
15567;SDS011;7885;42.596;23.044;2023-08-08T07:23:56;1.93;;;1.40;;
15567;SDS011;7885;42.596;23.044;2023-08-08T07:26:23;3.23;;;1.50;;
15567;SDS011;7885;42.596;23.044;2023-08-08T07:28:49;1.60;;;1.50;;
15567;SDS011;7885;42.596;23.044;2023-08-08T07:31:16;1.67;;;1.57;;
15567;SDS011;7885;42.596;23.044;2023-08-08T07:33:43;1.47;;;1.37;;
15567;SDS011;7885;42.596;23.044;2023-08-08T07:36:10;1.87;;;1.40;;
15567;SDS011;7885;42.596;23.044;2023-08-08T07:38:38;1.47;;;1.37;;
15567;SDS011;7885;42.596;23.044;2023-08-08T07:41:04;2.00;;;1.47;;
15567;SDS011;7885;42.596;23.044;2023-08-08T07:43:31;1.60;;;1.50;;
15567;SDS011;7885;42.596;23.044;2023-08-08T07:45:58;3.33;;;1.53;;
15567;SDS011;7885;42.596;23.044;2023-08-08T07:48:25;1.90;;;1.50;;
15567;SDS011;7885;42.596;23.044;2023-08-08T07:50:52;2.43;;;1.40;;
15567;SDS011;7885;42.596;23.044;2023-08-08T07:53:19;1.30;;;1.20;;
15567;SDS011;7885;42.596;23.044;2023-08-08T07:55:47;3.37;;;1.60;;
15567;SDS011;7885;42.596;23.044;2023-08-08T07:58:13;1.57;;;1.47;;
15567;SDS011;7885;42.596;23.044;2023-08-08T08:00:40;3.03;;;1.37;;
15567;SDS011;7885;42.596;23.044;2023-08-08T08:03:07;2.00;;;1.80;;
15567;SDS011;7885;42.596;23.044;2023-08-08T08:05:33;1.40;;;1.30;;
15567;SDS011;7885;42.596;23.044;2023-08-08T08:08:01;2.50;;;1.37;;
15567;SDS011;7885;42.596;23.044;2023-08-08T08:10:28;2.40;;;1.30;;
15567;SDS011;7885;42.596;23.044;2023-08-08T08:12:56;1.43;;;1.33;;
15567;SDS011;7885;42.596;23.044;2023-08-08T08:15:23;1.03;;;1.03;;
15567;SDS011;7885;42.596;23.044;2023-08-08T08:17:50;2.07;;;1.33;;
15567;SDS011;7885;42.596;23.044;2023-08-08T08:20:17;1.57;;;1.47;;
15567;SDS011;7885;42.596;23.044;2023-08-08T08:22:44;3.13;;;1.50;;
15567;SDS011;7885;42.596;23.044;2023-08-08T08:25:11;2.03;;;1.50;;
15567;SDS011;7885;42.596;23.044;2023-08-08T08:27:37;1.87;;;1.70;;
15567;SDS011;7885;42.596;23.044;2023-08-08T08:30:06;1.80;;;1.70;;
15567;SDS011;7885;42.596;23.044;2023-08-08T08:32:35;2.33;;;1.60;;
15567;SDS011;7885;42.596;23.044;2023-08-08T08:35:02;1.93;;;1.60;;
15567;SDS011;7885;42.596;23.044;2023-08-08T08:37:31;1.90;;;1.80;;
15567;SDS011;7885;42.596;23.044;2023-08-08T08:39:58;2.50;;;2.30;;
15567;SDS011;7885;42.596;23.044;2023-08-08T08:42:26;2.60;;;2.40;;
15567;SDS011;7885;42.596;23.044;2023-08-08T08:44:54;2.23;;;2.10;;
15567;SDS011;7885;42.596;23.044;2023-08-08T08:47:27;2.47;;;2.27;;
15567;SDS011;7885;42.596;23.044;2023-08-08T08:49:57;1.90;;;1.80;;
15567;SDS011;7885;42.596;23.044;2023-08-08T08:52:26;1.90;;;1.80;;
15567;SDS011;7885;42.596;23.044;2023-08-08T08:54:53;2.23;;;1.90;;
15567;SDS011;7885;42.596;23.044;2023-08-08T08:57:20;1.80;;;1.70;;
15567;SDS011;7885;42.596;23.044;2023-08-08T08:59:48;2.10;;;1.67;;
15567;SDS011;7885;42.596;23.044;2023-08-08T09:02:15;1.60;;;1.50;;
15567;SDS011;7885;42.596;23.044;2023-08-08T09:04:44;1.30;;;1.20;;
15567;SDS011;7885;42.596;23.044;2023-08-08T09:07:12;1.30;;;1.20;;
15567;SDS011;7885;42.596;23.044;2023-08-08T09:09:38;1.80;;;1.40;;
15567;SDS011;7885;42.596;23.044;2023-08-08T09:12:08;3.53;;;1.40;;
15567;SDS011;7885;42.596;23.044;2023-08-08T09:14:39;1.40;;;1.30;;
15567;SDS011;7885;42.596;23.044;2023-08-08T09:17:10;1.30;;;1.20;;
15567;SDS011;7885;42.596;23.044;2023-08-08T09:19:38;1.33;;;1.23;;
15567;SDS011;7885;42.596;23.044;2023-08-08T09:22:06;1.70;;;1.10;;
15567;SDS011;7885;42.596;23.044;2023-08-08T09:24:33;3.20;;;1.40;;
15567;SDS011;7885;42.596;23.044;2023-08-08T09:27:04;1.60;;;1.50;;
15567;SDS011;7885;42.596;23.044;2023-08-08T09:29:32;1.40;;;1.33;;
15567;SDS011;7885;42.596;23.044;2023-08-08T09:32:01;2.30;;;1.73;;
15567;SDS011;7885;42.596;23.044;2023-08-08T09:34:30;1.70;;;1.60;;
15567;SDS011;7885;42.596;23.044;2023-08-08T09:36:56;2.50;;;1.60;;
15567;SDS011;7885;42.596;23.044;2023-08-08T09:39:25;2.23;;;1.40;;
15567;SDS011;7885;42.596;23.044;2023-08-08T09:41:52;1.30;;;1.20;;
15567;SDS011;7885;42.596;23.044;2023-08-08T09:44:22;2.03;;;1.20;;
15567;SDS011;7885;42.596;23.044;2023-08-08T09:46:50;1.80;;;1.20;;
15567;SDS011;7885;42.596;23.044;2023-08-08T09:49:17;2.53;;;1.30;;
15567;SDS011;7885;42.596;23.044;2023-08-08T09:51:44;2.70;;;1.40;;
15567;SDS011;7885;42.596;23.044;2023-08-08T09:54:12;1.37;;;1.27;;
15567;SDS011;7885;42.596;23.044;2023-08-08T09:56:41;1.87;;;1.30;;
15567;SDS011;7885;42.596;23.044;2023-08-08T09:59:09;3.10;;;1.10;;
15567;SDS011;7885;42.596;23.044;2023-08-08T10:01:36;1.00;;;1.00;;
15567;SDS011;7885;42.596;23.044;2023-08-08T10:04:05;1.47;;;1.20;;
15567;SDS011;7885;42.596;23.044;2023-08-08T10:06:33;1.20;;;1.20;;
15567;SDS011;7885;42.596;23.044;2023-08-08T10:09:00;1.90;;;1.17;;
15567;SDS011;7885;42.596;23.044;2023-08-08T10:11:29;1.10;;;1.00;;
15567;SDS011;7885;42.596;23.044;2023-08-08T10:14:00;1.00;;;1.00;;
15567;SDS011;7885;42.596;23.044;2023-08-08T10:16:31;1.00;;;1.00;;
15567;SDS011;7885;42.596;23.044;2023-08-08T10:18:59;1.33;;;1.23;;
15567;SDS011;7885;42.596;23.044;2023-08-08T10:21:27;1.93;;;1.10;;
15567;SDS011;7885;42.596;23.044;2023-08-08T10:24:02;1.13;;;1.03;;
15567;SDS011;7885;42.596;23.044;2023-08-08T10:26:29;4.13;;;1.77;;
15567;SDS011;7885;42.596;23.044;2023-08-08T10:28:56;1.40;;;0.90;;
15567;SDS011;7885;42.596;23.044;2023-08-08T10:31:26;0.90;;;0.90;;
15567;SDS011;7885;42.596;23.044;2023-08-08T10:34:03;1.93;;;0.97;;
15567;SDS011;7885;42.596;23.044;2023-08-08T10:39:16;1.20;;;1.10;;
15567;SDS011;7885;42.596;23.044;2023-08-08T10:41:44;3.57;;;1.40;;
15567;SDS011;7885;42.596;23.044;2023-08-08T10:44:20;2.80;;;0.80;;
15567;SDS011;7885;42.596;23.044;2023-08-08T10:46:48;1.07;;;0.70;;
15567;SDS011;7885;42.596;23.044;2023-08-08T10:49:16;0.80;;;0.80;;
15567;SDS011;7885;42.596;23.044;2023-08-08T10:51:44;1.20;;;0.87;;
15567;SDS011;7885;42.596;23.044;2023-08-08T10:54:13;0.80;;;0.80;;
15567;SDS011;7885;42.596;23.044;2023-08-08T10:56:41;1.83;;;0.80;;
15567;SDS011;7885;42.596;23.044;2023-08-08T10:59:16;1.63;;;0.67;;
15567;SDS011;7885;42.596;23.044;2023-08-08T11:01:45;0.60;;;0.60;;
15567;SDS011;7885;42.596;23.044;2023-08-08T11:04:14;0.53;;;0.50;;
15567;SDS011;7885;42.596;23.044;2023-08-08T11:06:42;5.93;;;1.10;;
15567;SDS011;7885;42.596;23.044;2023-08-08T11:09:09;0.80;;;0.80;;
15567;SDS011;7885;42.596;23.044;2023-08-08T11:11:38;0.73;;;0.70;;
15567;SDS011;7885;42.596;23.044;2023-08-08T11:14:09;0.70;;;0.70;;
15567;SDS011;7885;42.596;23.044;2023-08-08T11:16:38;0.93;;;0.73;;
15567;SDS011;7885;42.596;23.044;2023-08-08T11:19:05;1.40;;;0.70;;
15567;SDS011;7885;42.596;23.044;2023-08-08T11:21:35;0.63;;;0.60;;
15567;SDS011;7885;42.596;23.044;2023-08-08T11:24:03;1.37;;;0.60;;
15567;SDS011;7885;42.596;23.044;2023-08-08T11:26:31;1.43;;;0.60;;
15567;SDS011;7885;42.596;23.044;2023-08-08T11:28:58;0.83;;;0.60;;
15567;SDS011;7885;42.596;23.044;2023-08-08T11:31:25;0.80;;;0.80;;
15567;SDS011;7885;42.596;23.044;2023-08-08T11:33:54;0.97;;;0.70;;
15567;SDS011;7885;42.596;23.044;2023-08-08T11:36:22;1.07;;;0.70;;
15567;SDS011;7885;42.596;23.044;2023-08-08T11:38:49;1.07;;;0.73;;
15567;SDS011;7885;42.596;23.044;2023-08-08T11:41:17;0.87;;;0.87;;
15567;SDS011;7885;42.596;23.044;2023-08-08T11:43:46;0.70;;;0.70;;
15567;SDS011;7885;42.596;23.044;2023-08-08T11:46:14;0.87;;;0.60;;
15567;SDS011;7885;42.596;23.044;2023-08-08T11:48:41;0.77;;;0.77;;
15567;SDS011;7885;42.596;23.044;2023-08-08T11:51:09;0.60;;;0.60;;
15567;SDS011;7885;42.596;23.044;2023-08-08T11:53:36;0.70;;;0.60;;
15567;SDS011;7885;42.596;23.044;2023-08-08T11:56:15;0.70;;;0.70;;
15567;SDS011;7885;42.596;23.044;2023-08-08T11:58:42;1.00;;;0.70;;
15567;SDS011;7885;42.596;23.044;2023-08-08T12:01:09;1.80;;;0.90;;
15567;SDS011;7885;42.596;23.044;2023-08-08T12:03:39;0.93;;;0.80;;
15567;SDS011;7885;42.596;23.044;2023-08-08T12:06:12;0.70;;;0.70;;
15567;SDS011;7885;42.596;23.044;2023-08-08T12:08:40;1.00;;;0.73;;
15567;SDS011;7885;42.596;23.044;2023-08-08T12:11:08;0.87;;;0.87;;
15567;SDS011;7885;42.596;23.044;2023-08-08T12:13:36;1.20;;;0.97;;
15567;SDS011;7885;42.596;23.044;2023-08-08T12:16:05;0.90;;;0.90;;
15567;SDS011;7885;42.596;23.044;2023-08-08T12:18:32;1.23;;;0.70;;
15567;SDS011;7885;42.596;23.044;2023-08-08T12:20:59;1.97;;;0.67;;
15567;SDS011;7885;42.596;23.044;2023-08-08T12:23:28;0.70;;;0.70;;
15567;SDS011;7885;42.596;23.044;2023-08-08T12:25:55;1.20;;;0.90;;
15567;SDS011;7885;42.596;23.044;2023-08-08T12:28:23;1.50;;;0.80;;
15567;SDS011;7885;42.596;23.044;2023-08-08T12:30:49;0.90;;;0.90;;
15567;SDS011;7885;42.596;23.044;2023-08-08T12:33:16;1.00;;;0.70;;
15567;SDS011;7885;42.596;23.044;2023-08-08T12:35:43;1.43;;;0.80;;
15567;SDS011;7885;42.596;23.044;2023-08-08T12:38:09;0.77;;;0.77;;
15567;SDS011;7885;42.596;23.044;2023-08-08T12:40:37;2.23;;;0.90;;
15567;SDS011;7885;42.596;23.044;2023-08-08T12:43:04;0.90;;;0.80;;
15567;SDS011;7885;42.596;23.044;2023-08-08T12:45:31;1.00;;;1.00;;
15567;SDS011;7885;42.596;23.044;2023-08-08T12:47:58;3.47;;;0.93;;
15567;SDS011;7885;42.596;23.044;2023-08-08T12:50:25;1.00;;;1.00;;
15567;SDS011;7885;42.596;23.044;2023-08-08T12:52:51;1.33;;;0.80;;
15567;SDS011;7885;42.596;23.044;2023-08-08T12:55:18;1.23;;;1.00;;
15567;SDS011;7885;42.596;23.044;2023-08-08T12:57:46;0.97;;;0.93;;
15567;SDS011;7885;42.596;23.044;2023-08-08T13:00:13;1.27;;;0.90;;
15567;SDS011;7885;42.596;23.044;2023-08-08T13:02:41;2.10;;;0.87;;
15567;SDS011;7885;42.596;23.044;2023-08-08T13:05:08;0.80;;;0.80;;
15567;SDS011;7885;42.596;23.044;2023-08-08T13:07:34;1.27;;;0.90;;
15567;SDS011;7885;42.596;23.044;2023-08-08T13:10:01;1.23;;;0.80;;
15567;SDS011;7885;42.596;23.044;2023-08-08T13:12:28;1.30;;;1.20;;
15567;SDS011;7885;42.596;23.044;2023-08-08T13:14:56;1.02;;;0.93;;
15567;SDS011;7885;42.596;23.044;2023-08-08T13:17:23;0.90;;;0.90;;
15567;SDS011;7885;42.596;23.044;2023-08-08T13:19:50;0.80;;;0.80;;
15567;SDS011;7885;42.596;23.044;2023-08-08T13:22:17;0.90;;;0.90;;
15567;SDS011;7885;42.596;23.044;2023-08-08T13:24:43;1.10;;;1.00;;
15567;SDS011;7885;42.596;23.044;2023-08-08T13:27:10;0.90;;;0.90;;
15567;SDS011;7885;42.596;23.044;2023-08-08T13:29:37;0.95;;;0.80;;
15567;SDS011;7885;42.596;23.044;2023-08-08T13:32:05;0.93;;;0.90;;
15567;SDS011;7885;42.596;23.044;2023-08-08T13:34:32;0.90;;;0.90;;
15567;SDS011;7885;42.596;23.044;2023-08-08T13:36:59;3.17;;;1.10;;
15567;SDS011;7885;42.596;23.044;2023-08-08T13:39:26;2.10;;;1.00;;
15567;SDS011;7885;42.596;23.044;2023-08-08T13:41:53;1.10;;;1.00;;
15567;SDS011;7885;42.596;23.044;2023-08-08T13:44:19;1.00;;;1.00;;
15567;SDS011;7885;42.596;23.044;2023-08-08T13:46:46;1.10;;;1.00;;
15567;SDS011;7885;42.596;23.044;2023-08-08T13:49:14;1.10;;;1.00;;
15567;SDS011;7885;42.596;23.044;2023-08-08T13:51:41;1.40;;;0.90;;
15567;SDS011;7885;42.596;23.044;2023-08-08T13:54:08;3.23;;;1.10;;
15567;SDS011;7885;42.596;23.044;2023-08-08T13:56:35;0.90;;;0.90;;
15567;SDS011;7885;42.596;23.044;2023-08-08T13:59:02;1.30;;;1.20;;
15567;SDS011;7885;42.596;23.044;2023-08-08T14:01:29;1.43;;;1.00;;
15567;SDS011;7885;42.596;23.044;2023-08-08T14:03:56;1.03;;;1.03;;
15567;SDS011;7885;42.596;23.044;2023-08-08T14:06:24;1.13;;;1.13;;
15567;SDS011;7885;42.596;23.044;2023-08-08T14:08:52;2.97;;;1.53;;
15567;SDS011;7885;42.596;23.044;2023-08-08T14:11:19;2.15;;;1.30;;
15567;SDS011;7885;42.596;23.044;2023-08-08T14:13:45;1.27;;;1.17;;
15567;SDS011;7885;42.596;23.044;2023-08-08T14:16:12;2.00;;;1.10;;
15567;SDS011;7885;42.596;23.044;2023-08-08T14:18:39;1.15;;;1.00;;
15567;SDS011;7885;42.596;23.044;2023-08-08T14:21:06;1.60;;;1.03;;
15567;SDS011;7885;42.596;23.044;2023-08-08T14:23:34;1.00;;;1.00;;
15567;SDS011;7885;42.596;23.044;2023-08-08T14:26:01;1.75;;;1.00;;
15567;SDS011;7885;42.596;23.044;2023-08-08T14:28:27;1.13;;;1.00;;
15567;SDS011;7885;42.596;23.044;2023-08-08T14:30:54;1.30;;;1.00;;
15567;SDS011;7885;42.596;23.044;2023-08-08T14:33:21;1.70;;;1.00;;
15567;SDS011;7885;42.596;23.044;2023-08-08T14:35:48;1.10;;;1.00;;
15567;SDS011;7885;42.596;23.044;2023-08-08T14:38:14;1.00;;;1.00;;
15567;SDS011;7885;42.596;23.044;2023-08-08T14:40:43;1.27;;;1.00;;
15567;SDS011;7885;42.596;23.044;2023-08-08T14:43:10;1.40;;;1.30;;
15567;SDS011;7885;42.596;23.044;2023-08-08T14:45:37;0.90;;;0.90;;
15567;SDS011;7885;42.596;23.044;2023-08-08T14:48:04;1.33;;;1.27;;
15567;SDS011;7885;42.596;23.044;2023-08-08T14:50:31;2.73;;;1.10;;
15567;SDS011;7885;42.596;23.044;2023-08-08T14:52:59;1.38;;;0.98;;
15567;SDS011;7885;42.596;23.044;2023-08-08T14:55:25;0.93;;;0.93;;
15567;SDS011;7885;42.596;23.044;2023-08-08T14:57:53;1.07;;;1.07;;
15567;SDS011;7885;42.596;23.044;2023-08-08T15:00:20;1.10;;;1.00;;
15567;SDS011;7885;42.596;23.044;2023-08-08T15:02:47;2.23;;;1.20;;
15567;SDS011;7885;42.596;23.044;2023-08-08T15:05:14;2.90;;;1.30;;
15567;SDS011;7885;42.596;23.044;2023-08-08T15:07:41;1.57;;;1.20;;
15567;SDS011;7885;42.596;23.044;2023-08-08T15:10:08;1.00;;;1.00;;